sensor_id;sensor_type;location;lat;lon;timestamp;P1;durP1;ratioP1;P2;durP2;ratioP2
71869;SDS011;59739;47.696;11.746;2024-03-02T00:01:21;6.15;;;4.88;;
71869;SDS011;59739;47.696;11.746;2024-03-02T00:03:47;6.90;;;4.75;;
71869;SDS011;59739;47.696;11.746;2024-03-02T00:06:13;6.40;;;4.50;;
71869;SDS011;59739;47.696;11.746;2024-03-02T00:08:40;8.52;;;5.30;;
71869;SDS011;59739;47.696;11.746;2024-03-02T00:11:06;6.55;;;4.50;;
71869;SDS011;59739;47.696;11.746;2024-03-02T00:13:33;6.93;;;4.60;;
71869;SDS011;59739;47.696;11.746;2024-03-02T00:16:00;8.52;;;4.95;;
71869;SDS011;59739;47.696;11.746;2024-03-02T00:18:30;8.02;;;5.07;;
71869;SDS011;59739;47.696;11.746;2024-03-02T00:20:59;8.20;;;5.25;;
71869;SDS011;59739;47.696;11.746;2024-03-02T00:23:29;8.70;;;5.13;;
71869;SDS011;59739;47.696;11.746;2024-03-02T00:25:56;10.77;;;6.38;;
71869;SDS011;59739;47.696;11.746;2024-03-02T00:28:24;8.55;;;4.85;;
71869;SDS011;59739;47.696;11.746;2024-03-02T00:33:23;6.95;;;4.53;;
71869;SDS011;59739;47.696;11.746;2024-03-02T00:35:53;8.68;;;4.70;;
71869;SDS011;59739;47.696;11.746;2024-03-02T00:38:20;8.73;;;5.07;;
71869;SDS011;59739;47.696;11.746;2024-03-02T00:40:46;6.57;;;3.95;;
71869;SDS011;59739;47.696;11.746;2024-03-02T00:46:06;6.05;;;4.43;;
71869;SDS011;59739;47.696;11.746;2024-03-02T00:48:33;6.82;;;4.38;;
71869;SDS011;59739;47.696;11.746;2024-03-02T00:51:03;5.68;;;4.30;;
71869;SDS011;59739;47.696;11.746;2024-03-02T00:53:29;7.65;;;4.47;;
71869;SDS011;59739;47.696;11.746;2024-03-02T00:56:00;7.85;;;4.57;;
71869;SDS011;59739;47.696;11.746;2024-03-02T00:58:27;6.60;;;4.60;;
71869;SDS011;59739;47.696;11.746;2024-03-02T01:00:53;6.22;;;4.40;;
71869;SDS011;59739;47.696;11.746;2024-03-02T01:03:19;6.53;;;4.43;;
71869;SDS011;59739;47.696;11.746;2024-03-02T01:05:45;6.93;;;4.50;;
71869;SDS011;59739;47.696;11.746;2024-03-02T01:08:11;5.88;;;4.00;;
71869;SDS011;59739;47.696;11.746;2024-03-02T01:10:37;6.22;;;4.35;;
71869;SDS011;59739;47.696;11.746;2024-03-02T01:13:03;6.75;;;4.15;;
71869;SDS011;59739;47.696;11.746;2024-03-02T01:15:29;5.85;;;4.25;;
71869;SDS011;59739;47.696;11.746;2024-03-02T01:17:56;5.45;;;4.05;;
71869;SDS011;59739;47.696;11.746;2024-03-02T01:20:22;6.55;;;4.20;;
71869;SDS011;59739;47.696;11.746;2024-03-02T01:22:50;8.30;;;5.18;;
71869;SDS011;59739;47.696;11.746;2024-03-02T01:25:17;8.63;;;5.22;;
71869;SDS011;59739;47.696;11.746;2024-03-02T01:27:43;6.93;;;4.15;;
71869;SDS011;59739;47.696;11.746;2024-03-02T01:30:09;6.20;;;3.83;;
71869;SDS011;59739;47.696;11.746;2024-03-02T01:32:37;7.20;;;4.72;;
71869;SDS011;59739;47.696;11.746;2024-03-02T01:35:04;7.63;;;3.78;;
71869;SDS011;59739;47.696;11.746;2024-03-02T01:37:32;9.68;;;3.83;;
71869;SDS011;59739;47.696;11.746;2024-03-02T01:39:58;7.00;;;4.18;;
71869;SDS011;59739;47.696;11.746;2024-03-02T01:42:24;5.43;;;3.55;;
71869;SDS011;59739;47.696;11.746;2024-03-02T01:44:51;5.50;;;4.00;;
71869;SDS011;59739;47.696;11.746;2024-03-02T01:47:17;7.22;;;4.00;;
71869;SDS011;59739;47.696;11.746;2024-03-02T01:49:43;6.13;;;3.83;;
71869;SDS011;59739;47.696;11.746;2024-03-02T01:52:10;4.57;;;3.10;;
71869;SDS011;59739;47.696;11.746;2024-03-02T01:54:36;6.20;;;3.60;;
71869;SDS011;59739;47.696;11.746;2024-03-02T01:57:02;4.60;;;3.00;;
71869;SDS011;59739;47.696;11.746;2024-03-02T01:59:28;4.28;;;2.80;;
71869;SDS011;59739;47.696;11.746;2024-03-02T02:01:55;4.10;;;2.75;;
71869;SDS011;59739;47.696;11.746;2024-03-02T02:04:21;6.03;;;3.25;;
71869;SDS011;59739;47.696;11.746;2024-03-02T02:06:52;5.05;;;2.90;;
71869;SDS011;59739;47.696;11.746;2024-03-02T02:09:19;3.40;;;2.50;;
71869;SDS011;59739;47.696;11.746;2024-03-02T02:11:48;4.10;;;2.35;;
71869;SDS011;59739;47.696;11.746;2024-03-02T02:14:16;3.42;;;2.30;;
71869;SDS011;59739;47.696;11.746;2024-03-02T02:16:42;4.10;;;2.58;;
71869;SDS011;59739;47.696;11.746;2024-03-02T02:19:09;3.65;;;2.35;;
71869;SDS011;59739;47.696;11.746;2024-03-02T02:21:35;3.83;;;2.47;;
71869;SDS011;59739;47.696;11.746;2024-03-02T02:24:01;3.80;;;2.45;;
71869;SDS011;59739;47.696;11.746;2024-03-02T02:26:29;4.43;;;2.60;;
71869;SDS011;59739;47.696;11.746;2024-03-02T02:28:57;3.80;;;2.88;;
71869;SDS011;59739;47.696;11.746;2024-03-02T02:31:24;5.13;;;3.10;;
71869;SDS011;59739;47.696;11.746;2024-03-02T02:33:50;3.83;;;3.03;;
71869;SDS011;59739;47.696;11.746;2024-03-02T02:36:16;4.70;;;3.17;;
71869;SDS011;59739;47.696;11.746;2024-03-02T02:38:43;4.90;;;3.30;;
71869;SDS011;59739;47.696;11.746;2024-03-02T02:41:12;3.83;;;2.65;;
71869;SDS011;59739;47.696;11.746;2024-03-02T02:43:38;4.30;;;2.90;;
71869;SDS011;59739;47.696;11.746;2024-03-02T02:46:08;5.15;;;2.92;;
71869;SDS011;59739;47.696;11.746;2024-03-02T02:48:34;5.95;;;3.10;;
71869;SDS011;59739;47.696;11.746;2024-03-02T02:51:03;5.07;;;3.05;;
71869;SDS011;59739;47.696;11.746;2024-03-02T02:53:30;3.15;;;2.05;;
71869;SDS011;59739;47.696;11.746;2024-03-02T02:55:56;2.88;;;2.08;;
71869;SDS011;59739;47.696;11.746;2024-03-02T02:58:22;3.42;;;2.33;;
71869;SDS011;59739;47.696;11.746;2024-03-02T03:00:48;3.20;;;2.45;;
71869;SDS011;59739;47.696;11.746;2024-03-02T03:03:14;3.72;;;2.45;;
71869;SDS011;59739;47.696;11.746;2024-03-02T03:05:40;3.50;;;2.58;;
71869;SDS011;59739;47.696;11.746;2024-03-02T03:08:06;4.25;;;2.30;;
71869;SDS011;59739;47.696;11.746;2024-03-02T03:10:33;3.22;;;2.20;;
71869;SDS011;59739;47.696;11.746;2024-03-02T03:12:59;2.65;;;1.85;;
71869;SDS011;59739;47.696;11.746;2024-03-02T03:15:25;2.65;;;1.75;;
71869;SDS011;59739;47.696;11.746;2024-03-02T03:17:51;2.50;;;1.88;;
71869;SDS011;59739;47.696;11.746;2024-03-02T03:20:17;3.25;;;1.88;;
71869;SDS011;59739;47.696;11.746;2024-03-02T03:22:43;1.95;;;1.48;;
71869;SDS011;59739;47.696;11.746;2024-03-02T03:25:09;2.30;;;1.65;;
71869;SDS011;59739;47.696;11.746;2024-03-02T03:27:35;3.10;;;1.70;;
71869;SDS011;59739;47.696;11.746;2024-03-02T03:30:01;2.42;;;1.42;;
71869;SDS011;59739;47.696;11.746;2024-03-02T03:32:28;2.20;;;1.90;;
71869;SDS011;59739;47.696;11.746;2024-03-02T03:34:54;2.17;;;1.50;;
71869;SDS011;59739;47.696;11.746;2024-03-02T03:37:20;2.42;;;1.65;;
71869;SDS011;59739;47.696;11.746;2024-03-02T03:39:46;2.33;;;1.55;;
71869;SDS011;59739;47.696;11.746;2024-03-02T03:42:12;1.98;;;1.60;;
71869;SDS011;59739;47.696;11.746;2024-03-02T03:44:39;3.67;;;1.40;;
71869;SDS011;59739;47.696;11.746;2024-03-02T03:47:07;4.60;;;1.85;;
71869;SDS011;59739;47.696;11.746;2024-03-02T03:49:33;3.05;;;1.92;;
71869;SDS011;59739;47.696;11.746;2024-03-02T03:51:59;3.08;;;2.00;;
71869;SDS011;59739;47.696;11.746;2024-03-02T03:54:25;2.97;;;1.75;;
71869;SDS011;59739;47.696;11.746;2024-03-02T03:56:52;2.13;;;1.42;;
71869;SDS011;59739;47.696;11.746;2024-03-02T03:59:18;2.70;;;1.80;;
71869;SDS011;59739;47.696;11.746;2024-03-02T04:01:44;3.50;;;1.50;;
71869;SDS011;59739;47.696;11.746;2024-03-02T04:04:10;2.78;;;1.95;;
71869;SDS011;59739;47.696;11.746;2024-03-02T04:06:36;2.28;;;1.67;;
71869;SDS011;59739;47.696;11.746;2024-03-02T04:09:02;2.90;;;1.80;;
71869;SDS011;59739;47.696;11.746;2024-03-02T04:11:29;3.47;;;1.73;;
71869;SDS011;59739;47.696;11.746;2024-03-02T04:13:55;2.45;;;2.00;;
71869;SDS011;59739;47.696;11.746;2024-03-02T04:16:21;3.03;;;2.08;;
71869;SDS011;59739;47.696;11.746;2024-03-02T04:18:48;2.67;;;1.92;;
71869;SDS011;59739;47.696;11.746;2024-03-02T04:21:14;3.05;;;2.03;;
71869;SDS011;59739;47.696;11.746;2024-03-02T04:23:40;3.67;;;2.35;;
71869;SDS011;59739;47.696;11.746;2024-03-02T04:26:06;3.92;;;2.38;;
71869;SDS011;59739;47.696;11.746;2024-03-02T04:28:32;2.92;;;1.92;;
71869;SDS011;59739;47.696;11.746;2024-03-02T04:31:00;3.17;;;1.80;;
71869;SDS011;59739;47.696;11.746;2024-03-02T04:33:27;3.47;;;2.08;;
71869;SDS011;59739;47.696;11.746;2024-03-02T04:35:53;4.05;;;2.35;;
71869;SDS011;59739;47.696;11.746;2024-03-02T04:38:19;3.05;;;1.88;;
71869;SDS011;59739;47.696;11.746;2024-03-02T04:40:45;2.55;;;1.65;;
71869;SDS011;59739;47.696;11.746;2024-03-02T04:43:11;4.18;;;1.85;;
71869;SDS011;59739;47.696;11.746;2024-03-02T04:45:41;2.90;;;1.95;;
71869;SDS011;59739;47.696;11.746;2024-03-02T04:48:08;2.95;;;1.90;;
71869;SDS011;59739;47.696;11.746;2024-03-02T04:50:34;3.88;;;2.17;;
71869;SDS011;59739;47.696;11.746;2024-03-02T04:53:00;2.47;;;1.80;;
71869;SDS011;59739;47.696;11.746;2024-03-02T04:55:27;4.13;;;2.15;;
71869;SDS011;59739;47.696;11.746;2024-03-02T04:57:53;4.65;;;2.65;;
71869;SDS011;59739;47.696;11.746;2024-03-02T05:00:22;3.58;;;2.58;;
71869;SDS011;59739;47.696;11.746;2024-03-02T05:02:48;3.10;;;1.98;;
71869;SDS011;59739;47.696;11.746;2024-03-02T05:05:15;4.13;;;2.63;;
71869;SDS011;59739;47.696;11.746;2024-03-02T05:07:41;2.95;;;2.13;;
71869;SDS011;59739;47.696;11.746;2024-03-02T05:10:09;3.60;;;2.10;;
71869;SDS011;59739;47.696;11.746;2024-03-02T05:12:36;3.95;;;2.05;;
71869;SDS011;59739;47.696;11.746;2024-03-02T05:15:09;4.90;;;2.30;;
71869;SDS011;59739;47.696;11.746;2024-03-02T05:17:36;3.72;;;2.30;;
71869;SDS011;59739;47.696;11.746;2024-03-02T05:20:08;4.47;;;2.10;;
71869;SDS011;59739;47.696;11.746;2024-03-02T05:22:35;6.55;;;3.45;;
71869;SDS011;59739;47.696;11.746;2024-03-02T05:25:05;4.68;;;2.72;;
71869;SDS011;59739;47.696;11.746;2024-03-02T05:27:32;4.88;;;2.85;;
71869;SDS011;59739;47.696;11.746;2024-03-02T05:29:59;5.55;;;3.03;;
71869;SDS011;59739;47.696;11.746;2024-03-02T05:32:26;4.57;;;2.40;;
71869;SDS011;59739;47.696;11.746;2024-03-02T05:34:52;5.18;;;2.75;;
71869;SDS011;59739;47.696;11.746;2024-03-02T05:37:18;4.20;;;2.67;;
71869;SDS011;59739;47.696;11.746;2024-03-02T05:39:45;6.53;;;4.15;;
71869;SDS011;59739;47.696;11.746;2024-03-02T05:42:11;7.38;;;3.67;;
71869;SDS011;59739;47.696;11.746;2024-03-02T05:44:37;6.68;;;4.40;;
71869;SDS011;59739;47.696;11.746;2024-03-02T05:47:04;9.63;;;4.40;;
71869;SDS011;59739;47.696;11.746;2024-03-02T05:49:36;9.30;;;4.95;;
71869;SDS011;59739;47.696;11.746;2024-03-02T05:52:03;6.70;;;4.22;;
71869;SDS011;59739;47.696;11.746;2024-03-02T05:54:29;8.60;;;5.30;;
71869;SDS011;59739;47.696;11.746;2024-03-02T05:56:55;6.82;;;4.47;;
71869;SDS011;59739;47.696;11.746;2024-03-02T05:59:21;6.30;;;4.10;;
71869;SDS011;59739;47.696;11.746;2024-03-02T06:01:50;7.32;;;3.97;;
71869;SDS011;59739;47.696;11.746;2024-03-02T06:04:17;8.15;;;4.72;;
71869;SDS011;59739;47.696;11.746;2024-03-02T06:06:43;7.72;;;4.90;;
71869;SDS011;59739;47.696;11.746;2024-03-02T06:09:09;8.73;;;5.85;;
71869;SDS011;59739;47.696;11.746;2024-03-02T06:11:39;10.45;;;5.43;;
71869;SDS011;59739;47.696;11.746;2024-03-02T06:14:12;13.00;;;6.07;;
71869;SDS011;59739;47.696;11.746;2024-03-02T06:16:38;11.95;;;6.70;;
71869;SDS011;59739;47.696;11.746;2024-03-02T06:19:05;11.15;;;5.82;;
71869;SDS011;59739;47.696;11.746;2024-03-02T06:21:32;9.05;;;5.78;;
71869;SDS011;59739;47.696;11.746;2024-03-02T06:23:59;9.07;;;5.65;;
71869;SDS011;59739;47.696;11.746;2024-03-02T06:26:26;10.85;;;6.10;;
71869;SDS011;59739;47.696;11.746;2024-03-02T06:28:56;10.32;;;6.00;;
71869;SDS011;59739;47.696;11.746;2024-03-02T06:31:23;9.50;;;5.65;;
71869;SDS011;59739;47.696;11.746;2024-03-02T06:33:49;9.60;;;5.50;;
71869;SDS011;59739;47.696;11.746;2024-03-02T06:36:21;9.98;;;5.55;;
71869;SDS011;59739;47.696;11.746;2024-03-02T06:38:48;9.95;;;6.07;;
71869;SDS011;59739;47.696;11.746;2024-03-02T06:41:18;12.32;;;6.25;;
71869;SDS011;59739;47.696;11.746;2024-03-02T06:43:46;11.40;;;6.03;;
71869;SDS011;59739;47.696;11.746;2024-03-02T06:46:13;11.30;;;5.93;;
71869;SDS011;59739;47.696;11.746;2024-03-02T06:48:42;11.02;;;6.18;;
71869;SDS011;59739;47.696;11.746;2024-03-02T06:51:08;10.75;;;6.30;;
71869;SDS011;59739;47.696;11.746;2024-03-02T06:53:35;12.55;;;6.80;;
71869;SDS011;59739;47.696;11.746;2024-03-02T06:56:03;12.32;;;7.18;;
71869;SDS011;59739;47.696;11.746;2024-03-02T06:58:30;10.30;;;6.13;;
71869;SDS011;59739;47.696;11.746;2024-03-02T07:00:56;9.13;;;5.40;;
71869;SDS011;59739;47.696;11.746;2024-03-02T07:03:22;11.50;;;5.90;;
71869;SDS011;59739;47.696;11.746;2024-03-02T07:05:51;10.45;;;6.13;;
71869;SDS011;59739;47.696;11.746;2024-03-02T07:08:17;12.38;;;6.90;;
71869;SDS011;59739;47.696;11.746;2024-03-02T07:10:43;11.18;;;7.03;;
71869;SDS011;59739;47.696;11.746;2024-03-02T07:13:13;10.30;;;6.43;;
71869;SDS011;59739;47.696;11.746;2024-03-02T07:15:39;9.95;;;5.90;;
71869;SDS011;59739;47.696;11.746;2024-03-02T07:18:25;11.23;;;5.93;;
71869;SDS011;59739;47.696;11.746;2024-03-02T07:20:51;11.30;;;6.25;;
71869;SDS011;59739;47.696;11.746;2024-03-02T07:23:18;9.57;;;5.32;;
71869;SDS011;59739;47.696;11.746;2024-03-02T07:25:45;9.20;;;5.75;;
71869;SDS011;59739;47.696;11.746;2024-03-02T07:28:12;10.20;;;5.45;;
71869;SDS011;59739;47.696;11.746;2024-03-02T07:30:39;13.00;;;5.95;;
71869;SDS011;59739;47.696;11.746;2024-03-02T07:33:06;8.18;;;5.00;;
71869;SDS011;59739;47.696;11.746;2024-03-02T07:35:35;8.45;;;5.57;;
71869;SDS011;59739;47.696;11.746;2024-03-02T07:38:01;10.57;;;5.70;;
71869;SDS011;59739;47.696;11.746;2024-03-02T07:40:27;8.98;;;5.25;;
71869;SDS011;59739;47.696;11.746;2024-03-02T07:42:54;11.98;;;7.20;;
71869;SDS011;59739;47.696;11.746;2024-03-02T07:45:21;12.18;;;7.07;;
71869;SDS011;59739;47.696;11.746;2024-03-02T07:47:47;10.35;;;6.47;;
71869;SDS011;59739;47.696;11.746;2024-03-02T07:50:14;11.63;;;6.10;;
71869;SDS011;59739;47.696;11.746;2024-03-02T07:52:41;12.18;;;6.35;;
71869;SDS011;59739;47.696;11.746;2024-03-02T07:55:11;10.32;;;6.63;;
71869;SDS011;59739;47.696;11.746;2024-03-02T07:57:42;9.57;;;6.40;;
71869;SDS011;59739;47.696;11.746;2024-03-02T08:00:09;10.65;;;5.63;;
71869;SDS011;59739;47.696;11.746;2024-03-02T08:02:39;11.45;;;6.40;;
71869;SDS011;59739;47.696;11.746;2024-03-02T08:05:07;11.32;;;6.03;;
71869;SDS011;59739;47.696;11.746;2024-03-02T08:07:36;10.52;;;5.90;;
71869;SDS011;59739;47.696;11.746;2024-03-02T08:10:05;9.60;;;5.65;;
71869;SDS011;59739;47.696;11.746;2024-03-02T08:12:35;11.00;;;6.45;;
71869;SDS011;59739;47.696;11.746;2024-03-02T08:15:01;9.82;;;5.72;;
71869;SDS011;59739;47.696;11.746;2024-03-02T08:17:28;8.13;;;5.07;;
71869;SDS011;59739;47.696;11.746;2024-03-02T08:19:57;10.00;;;5.43;;
71869;SDS011;59739;47.696;11.746;2024-03-02T08:22:24;9.85;;;5.32;;
71869;SDS011;59739;47.696;11.746;2024-03-02T08:24:55;9.30;;;4.45;;
71869;SDS011;59739;47.696;11.746;2024-03-02T08:27:21;7.72;;;4.35;;
71869;SDS011;59739;47.696;11.746;2024-03-02T08:29:47;8.18;;;4.43;;
71869;SDS011;59739;47.696;11.746;2024-03-02T08:32:13;7.50;;;4.93;;
71869;SDS011;59739;47.696;11.746;2024-03-02T08:34:42;8.20;;;5.07;;
71869;SDS011;59739;47.696;11.746;2024-03-02T08:37:10;8.38;;;3.70;;
71869;SDS011;59739;47.696;11.746;2024-03-02T08:39:37;7.78;;;4.55;;
71869;SDS011;59739;47.696;11.746;2024-03-02T08:42:03;6.57;;;3.40;;
71869;SDS011;59739;47.696;11.746;2024-03-02T08:44:33;4.40;;;2.45;;
71869;SDS011;59739;47.696;11.746;2024-03-02T08:47:03;4.70;;;2.35;;
71869;SDS011;59739;47.696;11.746;2024-03-02T08:49:29;4.57;;;2.28;;
71869;SDS011;59739;47.696;11.746;2024-03-02T08:51:58;3.97;;;2.78;;
71869;SDS011;59739;47.696;11.746;2024-03-02T08:54:27;5.20;;;2.10;;
71869;SDS011;59739;47.696;11.746;2024-03-02T08:56:53;4.55;;;2.17;;
71869;SDS011;59739;47.696;11.746;2024-03-02T08:59:20;4.45;;;2.28;;
71869;SDS011;59739;47.696;11.746;2024-03-02T09:01:46;4.70;;;1.90;;
71869;SDS011;59739;47.696;11.746;2024-03-02T09:04:13;3.15;;;2.50;;
71869;SDS011;59739;47.696;11.746;2024-03-02T09:06:39;6.45;;;3.45;;
71869;SDS011;59739;47.696;11.746;2024-03-02T09:09:05;7.43;;;4.68;;
71869;SDS011;59739;47.696;11.746;2024-03-02T09:11:37;5.70;;;3.95;;
71869;SDS011;59739;47.696;11.746;2024-03-02T09:14:12;7.00;;;4.40;;
71869;SDS011;59739;47.696;11.746;2024-03-02T09:16:46;7.13;;;4.70;;
71869;SDS011;59739;47.696;11.746;2024-03-02T09:19:15;7.30;;;5.10;;
71869;SDS011;59739;47.696;11.746;2024-03-02T09:21:42;6.68;;;5.15;;
71869;SDS011;59739;47.696;11.746;2024-03-02T09:24:12;6.85;;;4.97;;
71869;SDS011;59739;47.696;11.746;2024-03-02T09:26:38;8.70;;;5.88;;
71869;SDS011;59739;47.696;11.746;2024-03-02T09:29:07;10.40;;;6.18;;
71869;SDS011;59739;47.696;11.746;2024-03-02T09:31:39;9.85;;;6.53;;
71869;SDS011;59739;47.696;11.746;2024-03-02T09:34:07;7.93;;;6.23;;
71869;SDS011;59739;47.696;11.746;2024-03-02T09:36:36;11.80;;;6.45;;
71869;SDS011;59739;47.696;11.746;2024-03-02T09:39:03;9.88;;;6.95;;
71869;SDS011;59739;47.696;11.746;2024-03-02T09:41:29;12.27;;;8.57;;
71869;SDS011;59739;47.696;11.746;2024-03-02T09:43:55;13.00;;;8.13;;
71869;SDS011;59739;47.696;11.746;2024-03-02T09:46:22;9.40;;;7.30;;
71869;SDS011;59739;47.696;11.746;2024-03-02T09:48:52;11.60;;;7.45;;
71869;SDS011;59739;47.696;11.746;2024-03-02T09:51:18;11.63;;;7.95;;
71869;SDS011;59739;47.696;11.746;2024-03-02T09:53:51;14.80;;;9.05;;
71869;SDS011;59739;47.696;11.746;2024-03-02T09:56:18;13.30;;;8.52;;
71869;SDS011;59739;47.696;11.746;2024-03-02T09:58:46;12.63;;;8.23;;
71869;SDS011;59739;47.696;11.746;2024-03-02T10:01:12;13.80;;;8.77;;
71869;SDS011;59739;47.696;11.746;2024-03-02T10:03:39;13.10;;;8.77;;
71869;SDS011;59739;47.696;11.746;2024-03-02T10:06:26;13.80;;;8.38;;
71869;SDS011;59739;47.696;11.746;2024-03-02T10:08:54;13.65;;;8.15;;
71869;SDS011;59739;47.696;11.746;2024-03-02T10:11:31;13.20;;;8.50;;
71869;SDS011;59739;47.696;11.746;2024-03-02T10:14:05;16.40;;;9.35;;
71869;SDS011;59739;47.696;11.746;2024-03-02T10:16:47;15.32;;;9.13;;
71869;SDS011;59739;47.696;11.746;2024-03-02T10:19:17;14.15;;;9.13;;
71869;SDS011;59739;47.696;11.746;2024-03-02T10:21:53;12.13;;;8.70;;
71869;SDS011;59739;47.696;11.746;2024-03-02T10:24:22;13.65;;;9.60;;
71869;SDS011;59739;47.696;11.746;2024-03-02T10:26:49;12.65;;;9.13;;
71869;SDS011;59739;47.696;11.746;2024-03-02T10:29:20;14.65;;;9.18;;
71869;SDS011;59739;47.696;11.746;2024-03-02T10:31:47;15.13;;;10.00;;
71869;SDS011;59739;47.696;11.746;2024-03-02T10:34:13;14.52;;;10.63;;
71869;SDS011;59739;47.696;11.746;2024-03-02T10:36:41;16.45;;;10.15;;
71869;SDS011;59739;47.696;11.746;2024-03-02T10:39:12;13.80;;;9.00;;
71869;SDS011;59739;47.696;11.746;2024-03-02T10:41:42;15.27;;;10.38;;
71869;SDS011;59739;47.696;11.746;2024-03-02T10:44:10;14.00;;;10.23;;
71869;SDS011;59739;47.696;11.746;2024-03-02T10:46:39;16.33;;;10.70;;
71869;SDS011;59739;47.696;11.746;2024-03-02T10:49:05;14.98;;;10.90;;
71869;SDS011;59739;47.696;11.746;2024-03-02T10:51:34;17.30;;;11.02;;
71869;SDS011;59739;47.696;11.746;2024-03-02T10:54:02;17.85;;;10.57;;
71869;SDS011;59739;47.696;11.746;2024-03-02T10:56:39;20.73;;;13.40;;
71869;SDS011;59739;47.696;11.746;2024-03-02T11:01:50;18.75;;;12.18;;
71869;SDS011;59739;47.696;11.746;2024-03-02T11:04:29;19.52;;;12.15;;
71869;SDS011;59739;47.696;11.746;2024-03-02T11:07:06;20.50;;;11.95;;
71869;SDS011;59739;47.696;11.746;2024-03-02T11:09:41;19.23;;;12.65;;
71869;SDS011;59739;47.696;11.746;2024-03-02T11:12:25;17.15;;;11.82;;
71869;SDS011;59739;47.696;11.746;2024-03-02T11:14:59;17.35;;;11.35;;
71869;SDS011;59739;47.696;11.746;2024-03-02T11:17:29;19.27;;;13.27;;
71869;SDS011;59739;47.696;11.746;2024-03-02T11:19:56;18.90;;;12.93;;
71869;SDS011;59739;47.696;11.746;2024-03-02T11:22:29;18.10;;;12.00;;
71869;SDS011;59739;47.696;11.746;2024-03-02T11:25:02;15.35;;;11.38;;
71869;SDS011;59739;47.696;11.746;2024-03-02T11:33:03;19.77;;;12.80;;
71869;SDS011;59739;47.696;11.746;2024-03-02T11:35:44;18.42;;;13.23;;
71869;SDS011;59739;47.696;11.746;2024-03-02T11:38:14;19.30;;;13.55;;
71869;SDS011;59739;47.696;11.746;2024-03-02T11:40:40;19.90;;;14.60;;
71869;SDS011;59739;47.696;11.746;2024-03-02T11:43:09;21.33;;;14.60;;
71869;SDS011;59739;47.696;11.746;2024-03-02T11:45:38;18.33;;;14.68;;
71869;SDS011;59739;47.696;11.746;2024-03-02T11:48:14;19.42;;;13.80;;
71869;SDS011;59739;47.696;11.746;2024-03-02T11:50:47;21.95;;;14.15;;
71869;SDS011;59739;47.696;11.746;2024-03-02T11:53:15;20.40;;;14.40;;
71869;SDS011;59739;47.696;11.746;2024-03-02T11:55:45;20.35;;;14.18;;
71869;SDS011;59739;47.696;11.746;2024-03-02T11:58:32;20.27;;;14.02;;
71869;SDS011;59739;47.696;11.746;2024-03-02T12:01:04;21.98;;;15.57;;
71869;SDS011;59739;47.696;11.746;2024-03-02T12:03:37;22.35;;;14.50;;
71869;SDS011;59739;47.696;11.746;2024-03-02T12:06:13;23.55;;;14.63;;
71869;SDS011;59739;47.696;11.746;2024-03-02T12:08:40;20.73;;;14.18;;
71869;SDS011;59739;47.696;11.746;2024-03-02T12:11:12;19.30;;;14.05;;
71869;SDS011;59739;47.696;11.746;2024-03-02T12:13:51;21.52;;;15.70;;
71869;SDS011;59739;47.696;11.746;2024-03-02T12:16:25;20.75;;;14.05;;
71869;SDS011;59739;47.696;11.746;2024-03-02T12:18:51;18.60;;;13.20;;
71869;SDS011;59739;47.696;11.746;2024-03-02T12:21:18;19.20;;;12.38;;
71869;SDS011;59739;47.696;11.746;2024-03-02T12:23:46;18.38;;;13.07;;
71869;SDS011;59739;47.696;11.746;2024-03-02T12:26:15;19.25;;;12.15;;
71869;SDS011;59739;47.696;11.746;2024-03-02T12:28:42;17.23;;;10.30;;
71869;SDS011;59739;47.696;11.746;2024-03-02T12:31:13;14.68;;;11.30;;
71869;SDS011;59739;47.696;11.746;2024-03-02T12:33:42;16.73;;;11.23;;
71869;SDS011;59739;47.696;11.746;2024-03-02T12:36:09;14.90;;;11.02;;
71869;SDS011;59739;47.696;11.746;2024-03-02T12:38:37;15.82;;;11.40;;
71869;SDS011;59739;47.696;11.746;2024-03-02T12:41:16;16.13;;;11.75;;
71869;SDS011;59739;47.696;11.746;2024-03-02T12:43:43;18.60;;;12.07;;
71869;SDS011;59739;47.696;11.746;2024-03-02T12:46:13;16.83;;;11.10;;
71869;SDS011;59739;47.696;11.746;2024-03-02T12:48:40;15.75;;;10.48;;
71869;SDS011;59739;47.696;11.746;2024-03-02T12:51:08;16.75;;;10.85;;
71869;SDS011;59739;47.696;11.746;2024-03-02T12:53:43;17.45;;;10.70;;
71869;SDS011;59739;47.696;11.746;2024-03-02T12:56:10;13.02;;;9.65;;
71869;SDS011;59739;47.696;11.746;2024-03-02T12:58:42;16.38;;;11.40;;
71869;SDS011;59739;47.696;11.746;2024-03-02T13:01:14;16.08;;;10.60;;
71869;SDS011;59739;47.696;11.746;2024-03-02T13:03:49;15.35;;;9.32;;
71869;SDS011;59739;47.696;11.746;2024-03-02T13:06:16;16.23;;;10.15;;
71869;SDS011;59739;47.696;11.746;2024-03-02T13:08:43;14.32;;;9.60;;
71869;SDS011;59739;47.696;11.746;2024-03-02T13:11:14;15.88;;;9.55;;
71869;SDS011;59739;47.696;11.746;2024-03-02T13:13:57;14.25;;;9.57;;
71869;SDS011;59739;47.696;11.746;2024-03-02T13:16:54;14.73;;;9.98;;
71869;SDS011;59739;47.696;11.746;2024-03-02T13:19:30;14.57;;;10.10;;
71869;SDS011;59739;47.696;11.746;2024-03-02T13:21:57;14.10;;;10.27;;
71869;SDS011;59739;47.696;11.746;2024-03-02T13:24:29;17.10;;;9.90;;
71869;SDS011;59739;47.696;11.746;2024-03-02T13:26:56;15.87;;;11.07;;
71869;SDS011;59739;47.696;11.746;2024-03-02T13:29:23;15.00;;;11.02;;
71869;SDS011;59739;47.696;11.746;2024-03-02T13:31:53;15.70;;;10.18;;
71869;SDS011;59739;47.696;11.746;2024-03-02T13:34:19;18.33;;;11.38;;
71869;SDS011;59739;47.696;11.746;2024-03-02T13:36:46;17.13;;;11.32;;
71869;SDS011;59739;47.696;11.746;2024-03-02T13:39:12;15.60;;;11.77;;
71869;SDS011;59739;47.696;11.746;2024-03-02T13:41:40;14.00;;;9.73;;
71869;SDS011;59739;47.696;11.746;2024-03-02T13:44:17;18.52;;;12.00;;
71869;SDS011;59739;47.696;11.746;2024-03-02T13:46:47;19.20;;;12.73;;
71869;SDS011;59739;47.696;11.746;2024-03-02T13:49:13;16.65;;;11.95;;
71869;SDS011;59739;47.696;11.746;2024-03-02T13:51:40;18.00;;;12.32;;
71869;SDS011;59739;47.696;11.746;2024-03-02T13:54:28;18.70;;;13.40;;
71869;SDS011;59739;47.696;11.746;2024-03-02T13:56:57;18.52;;;12.38;;
71869;SDS011;59739;47.696;11.746;2024-03-02T13:59:24;18.73;;;12.32;;
71869;SDS011;59739;47.696;11.746;2024-03-02T14:01:56;15.30;;;10.50;;
71869;SDS011;59739;47.696;11.746;2024-03-02T14:04:22;17.83;;;12.18;;
71869;SDS011;59739;47.696;11.746;2024-03-02T14:06:48;17.00;;;11.15;;
71869;SDS011;59739;47.696;11.746;2024-03-02T14:09:15;16.13;;;12.70;;
71869;SDS011;59739;47.696;11.746;2024-03-02T14:11:41;16.48;;;11.35;;
71869;SDS011;59739;47.696;11.746;2024-03-02T14:14:07;17.15;;;11.40;;
71869;SDS011;59739;47.696;11.746;2024-03-02T14:16:34;16.10;;;10.98;;
71869;SDS011;59739;47.696;11.746;2024-03-02T14:19:00;15.60;;;11.55;;
71869;SDS011;59739;47.696;11.746;2024-03-02T14:21:26;13.60;;;11.00;;
71869;SDS011;59739;47.696;11.746;2024-03-02T14:23:53;16.27;;;11.00;;
71869;SDS011;59739;47.696;11.746;2024-03-02T14:26:20;18.98;;;12.13;;
71869;SDS011;59739;47.696;11.746;2024-03-02T14:28:50;17.55;;;12.82;;
71869;SDS011;59739;47.696;11.746;2024-03-02T14:31:16;18.33;;;12.02;;
71869;SDS011;59739;47.696;11.746;2024-03-02T14:33:46;18.23;;;12.13;;
71869;SDS011;59739;47.696;11.746;2024-03-02T14:36:13;17.10;;;12.20;;
71869;SDS011;59739;47.696;11.746;2024-03-02T14:38:42;17.17;;;11.45;;
71869;SDS011;59739;47.696;11.746;2024-03-02T14:41:11;18.33;;;11.25;;
71869;SDS011;59739;47.696;11.746;2024-03-02T14:43:40;16.42;;;10.98;;
71869;SDS011;59739;47.696;11.746;2024-03-02T14:46:07;15.38;;;10.52;;